sensor_id;sensor_type;location;lat;lon;timestamp;P1;durP1;ratioP1;P2;durP2;ratioP2
14203;SDS011;7185;51.854;6.622;2023-04-01T00:00:39;6.80;;;2.55;;
14203;SDS011;7185;51.854;6.622;2023-04-01T00:03:11;5.05;;;2.63;;
14203;SDS011;7185;51.854;6.622;2023-04-01T00:05:42;5.22;;;2.70;;
14203;SDS011;7185;51.854;6.622;2023-04-01T00:08:15;10.25;;;2.72;;
14203;SDS011;7185;51.854;6.622;2023-04-01T00:10:48;9.18;;;2.70;;
14203;SDS011;7185;51.854;6.622;2023-04-01T00:13:19;6.03;;;2.67;;
14203;SDS011;7185;51.854;6.622;2023-04-01T00:15:51;6.97;;;2.50;;
14203;SDS011;7185;51.854;6.622;2023-04-01T00:18:23;5.10;;;2.45;;
14203;SDS011;7185;51.854;6.622;2023-04-01T00:20:55;7.03;;;2.70;;
14203;SDS011;7185;51.854;6.622;2023-04-01T00:23:28;6.90;;;2.80;;
14203;SDS011;7185;51.854;6.622;2023-04-01T00:26:00;9.02;;;2.85;;
14203;SDS011;7185;51.854;6.622;2023-04-01T00:28:33;5.35;;;2.50;;
14203;SDS011;7185;51.854;6.622;2023-04-01T00:31:06;6.03;;;2.58;;
14203;SDS011;7185;51.854;6.622;2023-04-01T00:33:38;5.78;;;2.40;;
14203;SDS011;7185;51.854;6.622;2023-04-01T00:36:11;7.40;;;2.53;;
14203;SDS011;7185;51.854;6.622;2023-04-01T00:38:45;7.15;;;2.30;;
14203;SDS011;7185;51.854;6.622;2023-04-01T00:41:17;7.47;;;2.60;;
14203;SDS011;7185;51.854;6.622;2023-04-01T00:43:51;6.82;;;2.17;;
14203;SDS011;7185;51.854;6.622;2023-04-01T00:46:23;5.18;;;2.25;;
14203;SDS011;7185;51.854;6.622;2023-04-01T00:48:55;6.63;;;2.40;;
14203;SDS011;7185;51.854;6.622;2023-04-01T00:51:27;4.72;;;2.10;;
14203;SDS011;7185;51.854;6.622;2023-04-01T00:54:02;5.45;;;2.15;;
14203;SDS011;7185;51.854;6.622;2023-04-01T00:56:35;8.23;;;2.40;;
14203;SDS011;7185;51.854;6.622;2023-04-01T00:59:11;4.37;;;2.13;;
14203;SDS011;7185;51.854;6.622;2023-04-01T01:01:47;3.90;;;2.05;;
14203;SDS011;7185;51.854;6.622;2023-04-01T01:04:23;9.68;;;2.40;;
14203;SDS011;7185;51.854;6.622;2023-04-01T01:06:58;7.10;;;2.60;;
14203;SDS011;7185;51.854;6.622;2023-04-01T01:09:43;7.90;;;2.67;;
14203;SDS011;7185;51.854;6.622;2023-04-01T01:12:20;6.40;;;2.10;;
14203;SDS011;7185;51.854;6.622;2023-04-01T01:17:34;5.93;;;2.40;;
14203;SDS011;7185;51.854;6.622;2023-04-01T01:26:44;7.82;;;2.70;;
14203;SDS011;7185;51.854;6.622;2023-04-01T01:29:39;4.40;;;2.53;;
14203;SDS011;7185;51.854;6.622;2023-04-01T01:32:19;6.38;;;2.40;;
14203;SDS011;7185;51.854;6.622;2023-04-01T01:37:55;6.40;;;2.78;;
14203;SDS011;7185;51.854;6.622;2023-04-01T01:40:29;4.47;;;2.33;;
14203;SDS011;7185;51.854;6.622;2023-04-01T01:43:04;4.45;;;2.50;;
14203;SDS011;7185;51.854;6.622;2023-04-01T01:45:39;9.40;;;2.80;;
14203;SDS011;7185;51.854;6.622;2023-04-01T01:50:48;9.30;;;3.22;;
14203;SDS011;7185;51.854;6.622;2023-04-01T01:53:22;5.25;;;2.65;;
14203;SDS011;7185;51.854;6.622;2023-04-01T01:55:53;5.05;;;2.60;;
14203;SDS011;7185;51.854;6.622;2023-04-01T01:58:26;7.43;;;2.92;;
14203;SDS011;7185;51.854;6.622;2023-04-01T02:01:02;5.97;;;2.63;;
14203;SDS011;7185;51.854;6.622;2023-04-01T02:03:37;5.25;;;2.83;;
14203;SDS011;7185;51.854;6.622;2023-04-01T02:06:14;6.00;;;2.72;;
14203;SDS011;7185;51.854;6.622;2023-04-01T02:11:22;6.80;;;2.92;;
14203;SDS011;7185;51.854;6.622;2023-04-01T02:13:59;5.10;;;2.80;;
14203;SDS011;7185;51.854;6.622;2023-04-01T02:16:34;7.35;;;2.92;;
14203;SDS011;7185;51.854;6.622;2023-04-01T02:19:10;6.22;;;3.95;;
14203;SDS011;7185;51.854;6.622;2023-04-01T02:21:55;7.07;;;3.25;;
14203;SDS011;7185;51.854;6.622;2023-04-01T02:24:28;7.90;;;3.33;;
14203;SDS011;7185;51.854;6.622;2023-04-01T02:27:06;6.75;;;3.22;;
14203;SDS011;7185;51.854;6.622;2023-04-01T02:29:40;7.93;;;3.40;;
14203;SDS011;7185;51.854;6.622;2023-04-01T02:32:11;7.38;;;3.72;;
14203;SDS011;7185;51.854;6.622;2023-04-01T02:34:45;8.45;;;3.75;;
14203;SDS011;7185;51.854;6.622;2023-04-01T02:37:18;7.60;;;3.80;;
14203;SDS011;7185;51.854;6.622;2023-04-01T02:39:51;7.03;;;3.70;;
14203;SDS011;7185;51.854;6.622;2023-04-01T02:42:22;6.53;;;3.75;;
14203;SDS011;7185;51.854;6.622;2023-04-01T02:44:54;7.93;;;3.80;;
14203;SDS011;7185;51.854;6.622;2023-04-01T02:47:25;8.70;;;3.55;;
14203;SDS011;7185;51.854;6.622;2023-04-01T02:49:57;12.23;;;4.00;;
14203;SDS011;7185;51.854;6.622;2023-04-01T02:52:30;7.45;;;4.38;;
14203;SDS011;7185;51.854;6.622;2023-04-01T02:55:02;9.70;;;4.25;;
14203;SDS011;7185;51.854;6.622;2023-04-01T02:57:34;6.65;;;3.83;;
14203;SDS011;7185;51.854;6.622;2023-04-01T03:00:06;7.60;;;4.00;;
14203;SDS011;7185;51.854;6.622;2023-04-01T03:02:41;7.00;;;4.15;;
14203;SDS011;7185;51.854;6.622;2023-04-01T03:05:14;7.85;;;4.20;;
14203;SDS011;7185;51.854;6.622;2023-04-01T03:07:47;7.47;;;3.88;;
14203;SDS011;7185;51.854;6.622;2023-04-01T03:10:18;8.18;;;4.70;;
14203;SDS011;7185;51.854;6.622;2023-04-01T03:12:50;10.57;;;4.97;;
14203;SDS011;7185;51.854;6.622;2023-04-01T03:15:22;8.68;;;4.05;;
14203;SDS011;7185;51.854;6.622;2023-04-01T03:17:53;8.43;;;4.45;;
14203;SDS011;7185;51.854;6.622;2023-04-01T03:20:25;9.35;;;4.63;;
14203;SDS011;7185;51.854;6.622;2023-04-01T03:22:58;9.15;;;5.25;;
14203;SDS011;7185;51.854;6.622;2023-04-01T03:25:29;7.93;;;4.53;;
14203;SDS011;7185;51.854;6.622;2023-04-01T03:28:01;6.88;;;4.28;;
14203;SDS011;7185;51.854;6.622;2023-04-01T03:30:32;10.68;;;4.63;;
14203;SDS011;7185;51.854;6.622;2023-04-01T03:33:04;10.25;;;4.90;;
14203;SDS011;7185;51.854;6.622;2023-04-01T03:35:36;8.70;;;4.68;;
14203;SDS011;7185;51.854;6.622;2023-04-01T03:38:09;9.07;;;5.00;;
14203;SDS011;7185;51.854;6.622;2023-04-01T03:40:41;10.55;;;4.75;;
14203;SDS011;7185;51.854;6.622;2023-04-01T03:43:13;11.77;;;5.32;;
14203;SDS011;7185;51.854;6.622;2023-04-01T03:45:46;8.63;;;4.70;;
14203;SDS011;7185;51.854;6.622;2023-04-01T03:48:19;12.52;;;5.60;;
14203;SDS011;7185;51.854;6.622;2023-04-01T03:50:51;10.35;;;5.20;;
14203;SDS011;7185;51.854;6.622;2023-04-01T03:53:24;9.18;;;4.88;;
14203;SDS011;7185;51.854;6.622;2023-04-01T03:55:56;10.48;;;4.80;;
14203;SDS011;7185;51.854;6.622;2023-04-01T03:58:28;8.43;;;4.88;;
14203;SDS011;7185;51.854;6.622;2023-04-01T04:01:00;8.95;;;5.20;;
14203;SDS011;7185;51.854;6.622;2023-04-01T04:03:31;12.82;;;5.15;;
14203;SDS011;7185;51.854;6.622;2023-04-01T04:06:03;11.50;;;5.68;;
14203;SDS011;7185;51.854;6.622;2023-04-01T04:08:36;8.95;;;5.28;;
14203;SDS011;7185;51.854;6.622;2023-04-01T04:11:07;11.02;;;5.50;;
14203;SDS011;7185;51.854;6.622;2023-04-01T04:13:39;11.20;;;5.70;;
14203;SDS011;7185;51.854;6.622;2023-04-01T04:16:11;10.23;;;5.00;;
14203;SDS011;7185;51.854;6.622;2023-04-01T04:18:42;9.48;;;5.45;;
14203;SDS011;7185;51.854;6.622;2023-04-01T04:21:14;9.48;;;5.50;;
14203;SDS011;7185;51.854;6.622;2023-04-01T04:23:47;9.98;;;5.80;;
14203;SDS011;7185;51.854;6.622;2023-04-01T04:26:20;12.70;;;5.75;;
14203;SDS011;7185;51.854;6.622;2023-04-01T04:28:53;8.57;;;5.18;;
14203;SDS011;7185;51.854;6.622;2023-04-01T04:31:25;9.60;;;5.13;;
14203;SDS011;7185;51.854;6.622;2023-04-01T04:33:58;11.35;;;5.63;;
14203;SDS011;7185;51.854;6.622;2023-04-01T04:36:30;10.82;;;5.20;;
14203;SDS011;7185;51.854;6.622;2023-04-01T04:39:03;8.73;;;5.03;;
14203;SDS011;7185;51.854;6.622;2023-04-01T04:41:36;8.55;;;5.57;;
14203;SDS011;7185;51.854;6.622;2023-04-01T04:44:08;9.88;;;5.60;;
14203;SDS011;7185;51.854;6.622;2023-04-01T04:46:40;10.90;;;6.30;;
14203;SDS011;7185;51.854;6.622;2023-04-01T04:49:11;10.38;;;6.15;;
14203;SDS011;7185;51.854;6.622;2023-04-01T04:51:43;12.38;;;6.68;;
14203;SDS011;7185;51.854;6.622;2023-04-01T04:54:16;15.15;;;7.10;;
14203;SDS011;7185;51.854;6.622;2023-04-01T04:56:48;12.25;;;6.80;;
14203;SDS011;7185;51.854;6.622;2023-04-01T04:59:22;14.50;;;7.70;;
14203;SDS011;7185;51.854;6.622;2023-04-01T05:01:53;15.88;;;8.00;;
14203;SDS011;7185;51.854;6.622;2023-04-01T05:04:25;15.73;;;7.55;;
14203;SDS011;7185;51.854;6.622;2023-04-01T05:06:56;13.38;;;7.43;;
14203;SDS011;7185;51.854;6.622;2023-04-01T05:09:29;15.80;;;7.65;;
14203;SDS011;7185;51.854;6.622;2023-04-01T05:12:02;13.27;;;7.47;;
14203;SDS011;7185;51.854;6.622;2023-04-01T05:14:34;16.35;;;7.45;;
14203;SDS011;7185;51.854;6.622;2023-04-01T05:17:07;14.73;;;7.72;;
14203;SDS011;7185;51.854;6.622;2023-04-01T05:19:40;12.77;;;6.85;;
14203;SDS011;7185;51.854;6.622;2023-04-01T05:22:11;14.68;;;7.95;;
14203;SDS011;7185;51.854;6.622;2023-04-01T05:24:44;14.50;;;7.60;;
14203;SDS011;7185;51.854;6.622;2023-04-01T05:27:16;13.48;;;7.47;;
14203;SDS011;7185;51.854;6.622;2023-04-01T05:29:47;14.73;;;7.72;;
14203;SDS011;7185;51.854;6.622;2023-04-01T05:32:19;17.48;;;7.88;;
14203;SDS011;7185;51.854;6.622;2023-04-01T05:34:51;14.27;;;7.35;;
14203;SDS011;7185;51.854;6.622;2023-04-01T05:37:23;14.70;;;7.53;;
14203;SDS011;7185;51.854;6.622;2023-04-01T05:39:56;15.15;;;7.97;;
14203;SDS011;7185;51.854;6.622;2023-04-01T05:42:28;14.43;;;7.85;;
14203;SDS011;7185;51.854;6.622;2023-04-01T05:45:00;15.57;;;7.32;;
14203;SDS011;7185;51.854;6.622;2023-04-01T05:47:31;16.15;;;7.72;;
14203;SDS011;7185;51.854;6.622;2023-04-01T05:50:03;16.70;;;7.70;;
14203;SDS011;7185;51.854;6.622;2023-04-01T05:52:35;12.82;;;7.30;;
14203;SDS011;7185;51.854;6.622;2023-04-01T05:55:08;14.15;;;7.25;;
14203;SDS011;7185;51.854;6.622;2023-04-01T05:57:40;12.55;;;6.32;;
14203;SDS011;7185;51.854;6.622;2023-04-01T06:00:12;11.90;;;6.55;;
14203;SDS011;7185;51.854;6.622;2023-04-01T06:02:44;15.50;;;6.28;;
14203;SDS011;7185;51.854;6.622;2023-04-01T06:05:17;13.45;;;6.50;;
14203;SDS011;7185;51.854;6.622;2023-04-01T06:07:50;15.15;;;6.88;;
14203;SDS011;7185;51.854;6.622;2023-04-01T06:10:32;11.90;;;6.57;;
14203;SDS011;7185;51.854;6.622;2023-04-01T06:13:12;12.13;;;6.05;;
14203;SDS011;7185;51.854;6.622;2023-04-01T06:15:53;12.88;;;6.40;;
14203;SDS011;7185;51.854;6.622;2023-04-01T06:21:41;12.88;;;6.18;;
14203;SDS011;7185;51.854;6.622;2023-04-01T06:24:38;15.40;;;7.05;;
14203;SDS011;7185;51.854;6.622;2023-04-01T06:27:26;11.68;;;6.32;;
14203;SDS011;7185;51.854;6.622;2023-04-01T06:30:16;18.35;;;12.13;;
14203;SDS011;7185;51.854;6.622;2023-04-01T06:33:03;13.02;;;7.10;;
14203;SDS011;7185;51.854;6.622;2023-04-01T06:35:51;14.32;;;7.00;;
14203;SDS011;7185;51.854;6.622;2023-04-01T06:38:35;13.55;;;8.30;;
14203;SDS011;7185;51.854;6.622;2023-04-01T06:41:21;10.88;;;6.30;;
14203;SDS011;7185;51.854;6.622;2023-04-01T06:44:13;11.10;;;5.93;;
14203;SDS011;7185;51.854;6.622;2023-04-01T06:46:51;14.30;;;7.93;;
14203;SDS011;7185;51.854;6.622;2023-04-01T06:49:39;10.35;;;6.43;;
14203;SDS011;7185;51.854;6.622;2023-04-01T06:52:21;13.38;;;6.55;;
14203;SDS011;7185;51.854;6.622;2023-04-01T06:54:58;11.40;;;6.03;;
14203;SDS011;7185;51.854;6.622;2023-04-01T06:57:34;9.85;;;5.60;;
14203;SDS011;7185;51.854;6.622;2023-04-01T07:00:16;11.05;;;5.93;;
14203;SDS011;7185;51.854;6.622;2023-04-01T07:03:00;14.80;;;6.25;;
14203;SDS011;7185;51.854;6.622;2023-04-01T07:05:37;11.75;;;6.13;;
14203;SDS011;7185;51.854;6.622;2023-04-01T07:08:11;11.50;;;5.97;;
14203;SDS011;7185;51.854;6.622;2023-04-01T07:10:47;11.23;;;5.25;;
14203;SDS011;7185;51.854;6.622;2023-04-01T07:13:24;12.40;;;6.20;;
14203;SDS011;7185;51.854;6.622;2023-04-01T07:16:03;10.35;;;5.43;;
14203;SDS011;7185;51.854;6.622;2023-04-01T07:18:41;11.63;;;5.60;;
14203;SDS011;7185;51.854;6.622;2023-04-01T07:21:21;11.52;;;5.90;;
14203;SDS011;7185;51.854;6.622;2023-04-01T07:23:59;11.70;;;5.63;;
14203;SDS011;7185;51.854;6.622;2023-04-01T07:26:34;11.40;;;4.57;;
14203;SDS011;7185;51.854;6.622;2023-04-01T07:29:09;8.80;;;5.00;;
14203;SDS011;7185;51.854;6.622;2023-04-01T07:31:49;8.75;;;4.85;;
14203;SDS011;7185;51.854;6.622;2023-04-01T07:34:46;11.13;;;5.35;;
14203;SDS011;7185;51.854;6.622;2023-04-01T07:37:28;10.95;;;5.28;;
14203;SDS011;7185;51.854;6.622;2023-04-01T07:40:07;8.80;;;4.82;;
14203;SDS011;7185;51.854;6.622;2023-04-01T07:45:33;12.13;;;5.38;;
14203;SDS011;7185;51.854;6.622;2023-04-01T07:48:16;13.95;;;5.82;;
14203;SDS011;7185;51.854;6.622;2023-04-01T07:50:55;13.60;;;5.75;;
14203;SDS011;7185;51.854;6.622;2023-04-01T07:53:34;13.15;;;6.60;;
14203;SDS011;7185;51.854;6.622;2023-04-01T07:56:09;12.02;;;6.35;;
14203;SDS011;7185;51.854;6.622;2023-04-01T07:58:48;15.25;;;7.55;;
14203;SDS011;7185;51.854;6.622;2023-04-01T08:01:28;15.38;;;7.45;;
14203;SDS011;7185;51.854;6.622;2023-04-01T08:04:13;14.73;;;7.55;;
14203;SDS011;7185;51.854;6.622;2023-04-01T08:06:56;20.00;;;8.85;;
14203;SDS011;7185;51.854;6.622;2023-04-01T08:09:37;19.70;;;8.45;;
14203;SDS011;7185;51.854;6.622;2023-04-01T08:12:25;23.10;;;9.40;;
14203;SDS011;7185;51.854;6.622;2023-04-01T08:15:09;17.50;;;8.75;;
14203;SDS011;7185;51.854;6.622;2023-04-01T08:17:48;21.67;;;8.95;;
14203;SDS011;7185;51.854;6.622;2023-04-01T08:20:32;19.17;;;7.70;;
14203;SDS011;7185;51.854;6.622;2023-04-01T08:23:11;21.08;;;8.38;;
14203;SDS011;7185;51.854;6.622;2023-04-01T08:25:47;19.73;;;7.82;;
14203;SDS011;7185;51.854;6.622;2023-04-01T08:28:23;22.60;;;8.20;;
14203;SDS011;7185;51.854;6.622;2023-04-01T08:31:02;19.00;;;7.63;;
14203;SDS011;7185;51.854;6.622;2023-04-01T08:33:36;18.67;;;7.60;;
14203;SDS011;7185;51.854;6.622;2023-04-01T08:36:12;18.83;;;7.53;;
14203;SDS011;7185;51.854;6.622;2023-04-01T08:38:49;18.20;;;7.53;;
14203;SDS011;7185;51.854;6.622;2023-04-01T08:44:19;17.88;;;7.88;;
14203;SDS011;7185;51.854;6.622;2023-04-01T08:47:26;16.58;;;6.97;;
14203;SDS011;7185;51.854;6.622;2023-04-01T08:53:22;17.25;;;8.02;;
14203;SDS011;7185;51.854;6.622;2023-04-01T08:56:06;16.35;;;7.05;;
14203;SDS011;7185;51.854;6.622;2023-04-01T08:58:49;12.52;;;6.40;;
14203;SDS011;7185;51.854;6.622;2023-04-01T09:01:46;15.00;;;6.80;;
14203;SDS011;7185;51.854;6.622;2023-04-01T09:04:33;14.10;;;6.68;;
14203;SDS011;7185;51.854;6.622;2023-04-01T09:07:20;13.80;;;6.28;;
14203;SDS011;7185;51.854;6.622;2023-04-01T09:10:14;10.95;;;5.30;;
14203;SDS011;7185;51.854;6.622;2023-04-01T09:12:59;9.73;;;4.97;;
14203;SDS011;7185;51.854;6.622;2023-04-01T09:15:42;10.00;;;4.95;;
14203;SDS011;7185;51.854;6.622;2023-04-01T09:18:32;10.65;;;5.15;;
14203;SDS011;7185;51.854;6.622;2023-04-01T09:21:22;9.82;;;5.50;;
14203;SDS011;7185;51.854;6.622;2023-04-01T09:24:09;9.57;;;4.63;;
14203;SDS011;7185;51.854;6.622;2023-04-01T09:27:01;10.45;;;5.25;;
14203;SDS011;7185;51.854;6.622;2023-04-01T09:29:43;9.30;;;5.20;;
14203;SDS011;7185;51.854;6.622;2023-04-01T09:32:39;14.05;;;5.45;;
14203;SDS011;7185;51.854;6.622;2023-04-01T09:35:21;11.48;;;5.55;;
14203;SDS011;7185;51.854;6.622;2023-04-01T09:37:57;9.65;;;4.88;;
14203;SDS011;7185;51.854;6.622;2023-04-01T09:40:44;11.80;;;5.15;;
14203;SDS011;7185;51.854;6.622;2023-04-01T09:43:27;11.93;;;6.00;;
14203;SDS011;7185;51.854;6.622;2023-04-01T09:46:08;16.05;;;5.90;;
14203;SDS011;7185;51.854;6.622;2023-04-01T09:51:50;11.73;;;5.63;;
14203;SDS011;7185;51.854;6.622;2023-04-01T09:54:36;14.95;;;6.75;;
14203;SDS011;7185;51.854;6.622;2023-04-01T10:03:58;14.23;;;5.97;;
14203;SDS011;7185;51.854;6.622;2023-04-01T10:07:02;13.88;;;6.65;;
14203;SDS011;7185;51.854;6.622;2023-04-01T10:13:03;12.77;;;6.15;;
14203;SDS011;7185;51.854;6.622;2023-04-01T10:16:01;12.13;;;6.55;;
14203;SDS011;7185;51.854;6.622;2023-04-01T10:18:55;16.10;;;6.70;;
14203;SDS011;7185;51.854;6.622;2023-04-01T10:21:53;13.43;;;6.30;;
14203;SDS011;7185;51.854;6.622;2023-04-01T10:24:49;11.65;;;6.32;;
14203;SDS011;7185;51.854;6.622;2023-04-01T10:27:57;13.63;;;6.20;;
14203;SDS011;7185;51.854;6.622;2023-04-01T10:31:06;13.30;;;5.82;;
14203;SDS011;7185;51.854;6.622;2023-04-01T10:34:13;10.73;;;5.55;;
14203;SDS011;7185;51.854;6.622;2023-04-01T10:37:22;11.32;;;6.00;;
14203;SDS011;7185;51.854;6.622;2023-04-01T10:40:13;10.85;;;5.40;;
14203;SDS011;7185;51.854;6.622;2023-04-01T10:43:28;9.95;;;4.65;;
14203;SDS011;7185;51.854;6.622;2023-04-01T10:52:44;10.15;;;5.25;;
14203;SDS011;7185;51.854;6.622;2023-04-01T10:55:54;11.45;;;4.88;;
14203;SDS011;7185;51.854;6.622;2023-04-01T10:58:52;9.75;;;4.72;;
14203;SDS011;7185;51.854;6.622;2023-04-01T11:01:55;9.52;;;4.80;;
14203;SDS011;7185;51.854;6.622;2023-04-01T11:05:32;9.15;;;4.85;;
14203;SDS011;7185;51.854;6.622;2023-04-01T11:24:31;8.95;;;5.03;;
14203;SDS011;7185;51.854;6.622;2023-04-01T11:27:30;12.15;;;5.50;;
14203;SDS011;7185;51.854;6.622;2023-04-01T11:33:13;8.13;;;5.00;;
14203;SDS011;7185;51.854;6.622;2023-04-01T11:35:52;8.27;;;4.78;;
14203;SDS011;7185;51.854;6.622;2023-04-01T11:38:35;9.82;;;5.07;;
14203;SDS011;7185;51.854;6.622;2023-04-01T11:41:28;8.77;;;5.05;;
14203;SDS011;7185;51.854;6.622;2023-04-01T11:44:12;7.53;;;4.90;;
14203;SDS011;7185;51.854;6.622;2023-04-01T11:46:54;8.63;;;4.93;;
14203;SDS011;7185;51.854;6.622;2023-04-01T11:49:37;7.18;;;4.28;;
14203;SDS011;7185;51.854;6.622;2023-04-01T11:55:36;7.95;;;4.95;;
14203;SDS011;7185;51.854;6.622;2023-04-01T11:58:25;7.18;;;4.68;;
14203;SDS011;7185;51.854;6.622;2023-04-01T12:01:18;7.70;;;4.38;;
14203;SDS011;7185;51.854;6.622;2023-04-01T12:04:11;8.20;;;4.80;;
14203;SDS011;7185;51.854;6.622;2023-04-01T12:06:55;6.25;;;4.40;;
14203;SDS011;7185;51.854;6.622;2023-04-01T12:09:35;8.18;;;5.10;;
14203;SDS011;7185;51.854;6.622;2023-04-01T12:12:18;9.68;;;4.00;;
14203;SDS011;7185;51.854;6.622;2023-04-01T12:15:11;7.22;;;4.40;;
14203;SDS011;7185;51.854;6.622;2023-04-01T12:17:52;5.20;;;3.25;;
14203;SDS011;7185;51.854;6.622;2023-04-01T12:20:30;6.22;;;3.85;;
14203;SDS011;7185;51.854;6.622;2023-04-01T12:23:14;7.75;;;4.25;;
14203;SDS011;7185;51.854;6.622;2023-04-01T12:26:03;5.78;;;3.83;;
14203;SDS011;7185;51.854;6.622;2023-04-01T12:29:05;6.15;;;3.38;;
14203;SDS011;7185;51.854;6.622;2023-04-01T12:31:50;5.85;;;3.83;;
14203;SDS011;7185;51.854;6.622;2023-04-01T12:34:38;5.95;;;3.83;;
14203;SDS011;7185;51.854;6.622;2023-04-01T12:37:19;11.02;;;4.20;;
14203;SDS011;7185;51.854;6.622;2023-04-01T12:40:02;6.78;;;3.75;;
14203;SDS011;7185;51.854;6.622;2023-04-01T12:42:51;6.03;;;3.60;;
14203;SDS011;7185;51.854;6.622;2023-04-01T13:00:54;6.70;;;3.80;;
14203;SDS011;7185;51.854;6.622;2023-04-01T13:03:41;14.18;;;5.00;;
14203;SDS011;7185;51.854;6.622;2023-04-01T13:09:26;9.27;;;5.97;;
14203;SDS011;7185;51.854;6.622;2023-04-01T13:12:23;9.55;;;6.30;;
14203;SDS011;7185;51.854;6.622;2023-04-01T13:18:11;13.00;;;7.60;;
14203;SDS011;7185;51.854;6.622;2023-04-01T13:20:54;11.82;;;7.47;;
14203;SDS011;7185;51.854;6.622;2023-04-01T13:23:40;12.65;;;7.30;;
14203;SDS011;7185;51.854;6.622;2023-04-01T13:26:24;11.30;;;7.22;;
14203;SDS011;7185;51.854;6.622;2023-04-01T13:29:03;11.25;;;7.25;;
14203;SDS011;7185;51.854;6.622;2023-04-01T13:31:42;11.93;;;7.40;;
14203;SDS011;7185;51.854;6.622;2023-04-01T13:34:27;10.48;;;6.82;;
14203;SDS011;7185;51.854;6.622;2023-04-01T13:37:15;10.95;;;6.60;;
14203;SDS011;7185;51.854;6.622;2023-04-01T13:40:10;11.10;;;7.22;;
14203;SDS011;7185;51.854;6.622;2023-04-01T13:42:56;11.82;;;7.43;;
14203;SDS011;7185;51.854;6.622;2023-04-01T13:45:34;11.15;;;7.63;;
14203;SDS011;7185;51.854;6.622;2023-04-01T13:48:22;11.18;;;7.35;;
14203;SDS011;7185;51.854;6.622;2023-04-01T13:56:48;11.52;;;7.78;;
14203;SDS011;7185;51.854;6.622;2023-04-01T13:59:38;10.98;;;7.30;;
14203;SDS011;7185;51.854;6.622;2023-04-01T14:02:38;15.35;;;7.38;;
14203;SDS011;7185;51.854;6.622;2023-04-01T14:11:53;13.90;;;8.25;;
14203;SDS011;7185;51.854;6.622;2023-04-01T14:14:39;12.07;;;7.13;;
14203;SDS011;7185;51.854;6.622;2023-04-01T14:17:35;13.80;;;7.68;;
14203;SDS011;7185;51.854;6.622;2023-04-01T14:20:25;11.68;;;8.02;;
14203;SDS011;7185;51.854;6.622;2023-04-01T14:23:07;11.65;;;7.55;;
14203;SDS011;7185;51.854;6.622;2023-04-01T14:25:52;12.73;;;8.38;;
14203;SDS011;7185;51.854;6.622;2023-04-01T14:28:36;12.90;;;7.87;;
14203;SDS011;7185;51.854;6.622;2023-04-01T14:31:20;11.20;;;7.60;;
14203;SDS011;7185;51.854;6.622;2023-04-01T14:34:09;10.30;;;7.25;;
14203;SDS011;7185;51.854;6.622;2023-04-01T14:36:53;8.98;;;6.13;;
14203;SDS011;7185;51.854;6.622;2023-04-01T14:39:36;8.68;;;6.03;;
14203;SDS011;7185;51.854;6.622;2023-04-01T14:42:20;8.43;;;5.82;;
14203;SDS011;7185;51.854;6.622;2023-04-01T14:45:30;10.20;;;5.32;;
14203;SDS011;7185;51.854;6.622;2023-04-01T14:48:21;7.60;;;5.68;;
14203;SDS011;7185;51.854;6.622;2023-04-01T14:51:02;7.18;;;4.57;;
14203;SDS011;7185;51.854;6.622;2023-04-01T14:53:41;8.85;;;4.80;;
14203;SDS011;7185;51.854;6.622;2023-04-01T14:59:10;6.63;;;5.03;;
14203;SDS011;7185;51.854;6.622;2023-04-01T15:01:47;6.57;;;4.95;;
14203;SDS011;7185;51.854;6.622;2023-04-01T15:07:26;7.95;;;5.53;;
14203;SDS011;7185;51.854;6.622;2023-04-01T15:10:17;7.20;;;5.25;;
14203;SDS011;7185;51.854;6.622;2023-04-01T15:13:14;6.03;;;4.65;;
14203;SDS011;7185;51.854;6.622;2023-04-01T15:15:58;5.78;;;4.25;;
14203;SDS011;7185;51.854;6.622;2023-04-01T15:18:44;5.75;;;4.32;;
14203;SDS011;7185;51.854;6.622;2023-04-01T15:21:30;6.00;;;4.05;;
14203;SDS011;7185;51.854;6.622;2023-04-01T15:24:10;6.88;;;4.75;;
14203;SDS011;7185;51.854;6.622;2023-04-01T15:26:58;6.70;;;4.70;;
14203;SDS011;7185;51.854;6.622;2023-04-01T15:29:55;8.48;;;5.55;;
14203;SDS011;7185;51.854;6.622;2023-04-01T15:32:53;7.57;;;4.85;;
14203;SDS011;7185;51.854;6.622;2023-04-01T15:35:39;8.07;;;5.50;;
14203;SDS011;7185;51.854;6.622;2023-04-01T15:38:23;6.78;;;4.85;;
14203;SDS011;7185;51.854;6.622;2023-04-01T15:41:03;7.38;;;5.03;;
14203;SDS011;7185;51.854;6.622;2023-04-01T15:43:42;8.23;;;5.00;;
14203;SDS011;7185;51.854;6.622;2023-04-01T15:46:21;9.23;;;5.23;;
14203;SDS011;7185;51.854;6.622;2023-04-01T15:49:03;7.30;;;4.20;;
14203;SDS011;7185;51.854;6.622;2023-04-01T16:00:23;5.95;;;3.40;;
14203;SDS011;7185;51.854;6.622;2023-04-01T16:03:08;4.90;;;3.13;;
14203;SDS011;7185;51.854;6.622;2023-04-01T16:05:51;6.22;;;3.33;;
14203;SDS011;7185;51.854;6.622;2023-04-01T16:08:48;8.43;;;4.65;;
14203;SDS011;7185;51.854;6.622;2023-04-01T16:11:47;5.55;;;3.85;;
14203;SDS011;7185;51.854;6.622;2023-04-01T16:14:29;4.63;;;3.58;;
14203;SDS011;7185;51.854;6.622;2023-04-01T16:17:15;5.00;;;3.45;;
14203;SDS011;7185;51.854;6.622;2023-04-01T16:20:02;6.18;;;4.10;;
14203;SDS011;7185;51.854;6.622;2023-04-01T16:22:49;5.95;;;3.58;;
14203;SDS011;7185;51.854;6.622;2023-04-01T16:25:31;7.65;;;5.25;;
14203;SDS011;7185;51.854;6.622;2023-04-01T16:28:13;9.00;;;4.57;;
14203;SDS011;7185;51.854;6.622;2023-04-01T16:30:55;6.85;;;4.10;;
14203;SDS011;7185;51.854;6.622;2023-04-01T16:33:32;5.70;;;3.70;;
14203;SDS011;7185;51.854;6.622;2023-04-01T16:36:11;5.50;;;3.60;;
14203;SDS011;7185;51.854;6.622;2023-04-01T16:39:06;5.60;;;3.90;;
14203;SDS011;7185;51.854;6.622;2023-04-01T16:41:51;5.35;;;3.95;;
14203;SDS011;7185;51.854;6.622;2023-04-01T16:44:46;5.70;;;4.10;;
14203;SDS011;7185;51.854;6.622;2023-04-01T16:47:21;7.22;;;4.97;;
14203;SDS011;7185;51.854;6.622;2023-04-01T16:49:59;7.95;;;5.65;;
14203;SDS011;7185;51.854;6.622;2023-04-01T16:52:42;8.95;;;5.88;;
14203;SDS011;7185;51.854;6.622;2023-04-01T16:55:34;7.75;;;5.68;;
14203;SDS011;7185;51.854;6.622;2023-04-01T16:58:14;8.98;;;5.30;;
14203;SDS011;7185;51.854;6.622;2023-04-01T17:00:55;8.50;;;5.18;;
14203;SDS011;7185;51.854;6.622;2023-04-01T17:03:32;7.65;;;5.03;;
14203;SDS011;7185;51.854;6.622;2023-04-01T17:06:12;7.88;;;5.20;;
14203;SDS011;7185;51.854;6.622;2023-04-01T17:09:00;7.75;;;4.97;;
14203;SDS011;7185;51.854;6.622;2023-04-01T17:11:45;5.95;;;3.85;;
14203;SDS011;7185;51.854;6.622;2023-04-01T17:14:26;5.68;;;3.78;;
14203;SDS011;7185;51.854;6.622;2023-04-01T17:17:11;4.80;;;3.40;;
14203;SDS011;7185;51.854;6.622;2023-04-01T17:19:53;6.72;;;3.30;;
14203;SDS011;7185;51.854;6.622;2023-04-01T17:22:33;7.10;;;4.63;;
14203;SDS011;7185;51.854;6.622;2023-04-01T17:25:19;5.57;;;3.55;;
14203;SDS011;7185;51.854;6.622;2023-04-01T17:27:57;4.63;;;3.50;;
14203;SDS011;7185;51.854;6.622;2023-04-01T17:30:37;4.22;;;3.30;;
14203;SDS011;7185;51.854;6.622;2023-04-01T17:33:20;5.30;;;3.30;;
14203;SDS011;7185;51.854;6.622;2023-04-01T17:36:09;5.53;;;3.50;;
14203;SDS011;7185;51.854;6.622;2023-04-01T17:38:57;4.78;;;3.20;;
14203;SDS011;7185;51.854;6.622;2023-04-01T17:41:46;3.97;;;3.22;;
14203;SDS011;7185;51.854;6.622;2023-04-01T17:44:26;4.78;;;3.50;;
14203;SDS011;7185;51.854;6.622;2023-04-01T17:47:09;5.60;;;3.00;;
14203;SDS011;7185;51.854;6.622;2023-04-01T17:50:02;3.25;;;2.58;;
14203;SDS011;7185;51.854;6.622;2023-04-01T17:52:42;3.40;;;2.60;;
14203;SDS011;7185;51.854;6.622;2023-04-01T17:55:26;4.10;;;2.72;;
14203;SDS011;7185;51.854;6.622;2023-04-01T17:58:12;3.40;;;2.58;;
14203;SDS011;7185;51.854;6.622;2023-04-01T18:00:57;2.83;;;2.28;;
14203;SDS011;7185;51.854;6.622;2023-04-01T18:03:44;3.13;;;2.43;;
14203;SDS011;7185;51.854;6.622;2023-04-01T18:06:44;3.90;;;2.90;;
14203;SDS011;7185;51.854;6.622;2023-04-01T18:09:26;5.57;;;2.40;;
14203;SDS011;7185;51.854;6.622;2023-04-01T18:12:12;3.45;;;2.45;;
14203;SDS011;7185;51.854;6.622;2023-04-01T18:15:06;3.35;;;2.75;;
14203;SDS011;7185;51.854;6.622;2023-04-01T18:17:56;3.20;;;2.60;;